Погода Итобина неделю

Сан-Паулу, Бразилия

21 - 27 июля
  • 21июля
    Сегодня
    +15°
    +30°
    Ясно и безоблачно
    ВремяПогодаТемператураВлажностьДавлениеВетер, м/сВероятность осадков
    00:00Ясно и безоблачно+19°C54 %725 мм3.0 м/с5 %
    03:00Ясно и безоблачно+17°C60 %724 мм3.4 м/с5 %
    06:00Ясно и безоблачно+16°C59 %724 мм3.0 м/с5 %
    09:00Ясно и безоблачно+20°C52 %726 мм2.2 м/с5 %
    12:00Ясно и безоблачно+27°C34 %726 мм2.4 м/с5 %
    15:00Ясно и безоблачно+30°C28 %724 мм0.4 м/с5 %
    18:00Ясно и безоблачно+26°C41 %724 мм2.6 м/с5 %
    21:00Ясно и безоблачно+23°C48 %725 мм2.3 м/с5 %
  • 22июля
    Понедельник
    +16°
    +31°
    Ясно и безоблачно
    ВремяПогодаТемператураВлажностьДавлениеВетер, м/сВероятность осадков
    00:00Ясно и безоблачно+20°C58 %725 мм2.9 м/с5 %
    03:00Ясно и безоблачно+18°C61 %724 мм3.0 м/с5 %
    06:00Ясно и безоблачно+18°C65 %724 мм2.1 м/с5 %
    09:00Ясно и безоблачно+20°C54 %726 мм1.5 м/с5 %
    12:00Ясно и безоблачно+28°C33 %727 мм0.8 м/с5 %
    15:00Ясно и безоблачно+30°C26 %725 мм0.7 м/с5 %
    18:00Ясно и безоблачно+26°C39 %725 мм2.4 м/с5 %
    21:00Ясно и безоблачно+24°C42 %725 мм2.6 м/с5 %
  • 23июля
    Вторник
    +16°
    +31°
    Ясно и безоблачно
    ВремяПогодаТемператураВлажностьДавлениеВетер, м/сВероятность осадков
    00:00Ясно и безоблачно+20°C50 %725 мм3.2 м/с5 %
    03:00Ясно и безоблачно+18°C59 %725 мм2.9 м/с5 %
    06:00Ясно и безоблачно+17°C68 %725 мм2.9 м/с5 %
    09:00Ясно и безоблачно+20°C58 %727 мм3.0 м/с5 %
    12:00Ясно и безоблачно+28°C32 %727 мм2.3 м/с5 %
    15:00Ясно и безоблачно+30°C26 %725 мм1.6 м/с5 %
    18:00Ясно и безоблачно+27°C36 %725 мм2.5 м/с5 %
    21:00Ясно и безоблачно+23°C48 %725 мм2.5 м/с5 %
  • 24июля
    Среда
    +18°
    +31°
    Облачно с прояснениями
    ВремяПогодаТемператураВлажностьДавлениеВетер, м/сВероятность осадков
    00:00Ясно и безоблачно+19°C59 %725 мм2.6 м/с5 %
    03:00Ясно и безоблачно+18°C55 %724 мм3.2 м/с5 %
    06:00Ясно и безоблачно+18°C60 %724 мм2.8 м/с5 %
    09:00Небольшая облачность+21°C48 %726 мм2.4 м/с5 %
    12:00Небольшая облачность+29°C30 %727 мм3.6 м/с5 %
    15:00Облачно с прояснениями+30°C26 %725 мм2.0 м/с5 %
    18:00Небольшая облачность+26°C40 %724 мм2.1 м/с5 %
    21:00Ясно и безоблачно+24°C40 %725 мм2.8 м/с5 %
  • 25июля
    Четверг
    +17°
    +32°
    Ясно и безоблачно
    ВремяПогодаТемператураВлажностьДавлениеВетер, м/сВероятность осадков
    00:00Ясно и безоблачно+20°C48 %724 мм2.6 м/с5 %
    03:00Ясно и безоблачно+19°C50 %724 мм2.9 м/с5 %
    06:00Ясно и безоблачно+20°C52 %724 мм3.0 м/с5 %
    09:00Ясно и безоблачно+23°C43 %726 мм3.0 м/с5 %
    12:00Ясно и безоблачно+29°C28 %725 мм3.2 м/с5 %
    15:00Ясно и безоблачно+31°C26 %723 мм1.1 м/с5 %
    18:00Ясно и безоблачно+27°C40 %723 мм1.6 м/с5 %
    21:00Ясно и безоблачно+24°C45 %723 мм2.4 м/с5 %
Мы используем cookies
Соглашаюсь